createdAt,value
2019-01-12T00:05:13.053Z,0.24
2019-01-12T00:08:04.955Z,0.09
2019-01-12T00:11:12.865Z,0.03
2019-01-12T00:13:57.522Z,0.16
2019-01-12T00:26:47.892Z,0.14
2019-01-12T00:30:02.608Z,0.13
2019-01-12T00:35:50.014Z,0.11
2019-01-12T00:41:37.128Z,0.04
2019-01-12T00:48:18.130Z,0.09
2019-01-12T00:50:57.712Z,0.12
2019-01-12T00:54:09.816Z,0.15
2019-01-12T00:57:25.859Z,0.06
2019-01-12T01:01:00.774Z,0.14
2019-01-12T01:06:52.638Z,0.08
2019-01-12T01:26:16.239Z,0.03
2019-01-12T01:33:27.659Z,-0.22
2019-01-12T01:39:40.685Z,-0.15
2019-01-12T02:01:41.190Z,-0.26
2019-01-12T02:14:35.100Z,-0.29
2019-01-12T02:17:51.092Z,-0.34
2019-01-12T02:20:57.562Z,-0.24
2019-01-12T02:29:40.300Z,-0.37
2019-01-12T02:32:46.516Z,-0.40
2019-01-12T02:39:37.050Z,-0.42
2019-01-12T02:42:27.521Z,-0.28
2019-01-12T02:45:36.623Z,-0.39
2019-01-12T02:52:02.171Z,-0.28
2019-01-12T03:08:07.744Z,-0.40
2019-01-12T03:34:02.445Z,-0.34
2019-01-12T03:46:00.671Z,-0.53
2019-01-12T03:49:00.671Z,-0.52
2019-01-12T03:55:33.017Z,-0.52
2019-01-12T04:27:15.410Z,-0.72
2019-01-12T04:54:49.185Z,-0.61
2019-01-12T05:22:23.292Z,-0.72
2019-01-12T05:32:14.008Z,-0.94
2019-01-12T05:35:30.521Z,-0.85
2019-01-12T05:38:42.700Z,-0.96
2019-01-12T05:45:17.163Z,-1.26
2019-01-12T05:48:54.153Z,-0.99
2019-01-12T05:51:59.228Z,-0.92
2019-01-12T06:31:59.705Z,-1.08
2019-01-12T06:35:01.063Z,-1.36
2019-01-12T07:16:13.791Z,-1.15
2019-01-12T07:29:04.213Z,-1.29
2019-01-12T07:32:15.050Z,-1.38
2019-01-12T07:35:14.030Z,-1.40
2019-01-12T07:37:46.997Z,-1.44
2019-01-12T07:40:26.434Z,-1.45
2019-01-12T07:43:04.860Z,-1.47
2019-01-12T07:49:03.284Z,-1.64
2019-01-12T07:51:32.850Z,-1.67
2019-01-12T07:54:04.252Z,-1.66
2019-01-12T07:56:35.729Z,-1.77
2019-01-12T07:59:06.424Z,-1.83
2019-01-12T08:01:44.987Z,-1.88
2019-01-12T08:04:10.406Z,-1.94
2019-01-12T08:06:43.904Z,-1.92
2019-01-12T08:09:14.146Z,-2.05
2019-01-12T08:11:48.103Z,-2.01
2019-01-12T08:14:17.255Z,-1.88
2019-01-12T08:16:46.631Z,-1.90
2019-01-12T08:19:15.276Z,-1.91
2019-01-12T08:21:45.027Z,-1.91
2019-01-12T08:24:14.045Z,-1.99
2019-01-12T08:26:45.292Z,-2.02
2019-01-12T08:29:14.611Z,-2.06
2019-01-12T08:31:43.331Z,-2.08
2019-01-12T08:34:11.947Z,-2.04
2019-01-12T08:36:40.696Z,-1.90
2019-01-12T08:39:09.195Z,-1.82
2019-01-12T08:41:37.849Z,-1.96
2019-01-12T08:44:06.376Z,-1.76
2019-01-12T08:46:36.542Z,-1.73
2019-01-12T08:49:05.252Z,-1.73
2019-01-12T08:51:33.951Z,-1.83
2019-01-12T08:54:03.057Z,-1.88
2019-01-12T08:56:38.040Z,-1.95
2019-01-12T08:59:02.673Z,-1.77
2019-01-12T09:01:31.288Z,-1.87
2019-01-12T09:03:59.887Z,-1.71
2019-01-12T09:06:28.878Z,-1.65
2019-01-12T09:08:58.875Z,-1.77
2019-01-12T09:11:36.957Z,-1.66
2019-01-12T09:14:07.181Z,-1.70
2019-01-12T09:16:36.920Z,-1.74
2019-01-12T09:19:05.493Z,-1.88
2019-01-12T09:21:34.431Z,-1.83
2019-01-12T09:24:10.414Z,-1.74
2019-01-12T09:26:51.510Z,-1.78
2019-01-12T09:29:21.248Z,-1.57
2019-01-12T09:31:49.758Z,-1.48
2019-01-12T09:34:18.837Z,-1.50
2019-01-12T09:37:00.038Z,-1.55
2019-01-12T09:42:14.635Z,-1.47
2019-01-12T09:45:07.334Z,-1.50
2019-01-12T09:47:55.147Z,-1.41
2019-01-12T09:50:29.883Z,-1.34
2019-01-12T09:53:06.548Z,-1.30
2019-01-12T09:56:07.289Z,-1.29
2019-01-12T09:58:47.785Z,-1.29
2019-01-12T10:04:09.876Z,-1.33
2019-01-12T10:10:01.898Z,-1.23
2019-01-12T10:12:46.491Z,-1.23
2019-01-12T10:15:40.069Z,-1.20
2019-01-12T10:18:33.095Z,-1.11
2019-01-12T10:21:27.706Z,-1.11
2019-01-12T10:24:11.898Z,-1.04
2019-01-12T10:39:54.584Z,-0.90
2019-01-12T10:48:06.814Z,-0.86
2019-01-12T11:43:07.470Z,-0.50
2019-01-12T11:46:00.983Z,-0.53
2019-01-12T11:48:29.779Z,-0.65
2019-01-12T11:51:08.932Z,-0.57
2019-01-12T11:53:37.193Z,-0.53
2019-01-12T11:56:05.501Z,-0.44
2019-01-12T11:58:33.844Z,-0.51
2019-01-12T12:01:02.104Z,-0.59
2019-01-12T12:03:30.459Z,-0.56
2019-01-12T12:05:58.812Z,-0.62
2019-01-12T12:08:27.052Z,-0.48
2019-01-12T12:10:55.308Z,-0.55
2019-01-12T12:13:23.699Z,-0.65
2019-01-12T12:15:51.997Z,-0.61
2019-01-12T12:18:20.304Z,-0.59
2019-01-12T12:20:48.685Z,-0.60
2019-01-12T12:23:16.947Z,-0.59
2019-01-12T12:25:45.355Z,-0.50
2019-01-12T12:28:13.758Z,-0.39
2019-01-12T12:30:42.093Z,-0.52
2019-01-12T12:33:10.439Z,-0.53
2019-01-12T12:35:38.802Z,-0.47
2019-01-12T12:38:07.057Z,-0.47
2019-01-12T12:40:35.314Z,-0.38
2019-01-12T12:43:03.628Z,-0.37
2019-01-12T12:45:32.624Z,-0.34
2019-01-12T12:48:00.901Z,-0.30
2019-01-12T12:50:29.310Z,-0.23
2019-01-12T12:52:57.543Z,-0.35
2019-01-12T12:55:25.801Z,-0.36
2019-01-12T12:57:54.183Z,-0.43
2019-01-12T13:00:23.221Z,-0.41
2019-01-12T13:02:51.466Z,-0.41
2019-01-12T13:05:19.933Z,-0.40
2019-01-12T13:07:48.187Z,-0.36
2019-01-12T13:10:20.727Z,-0.32
2019-01-12T13:12:49.123Z,-0.38
2019-01-12T13:15:17.435Z,-0.38
2019-01-12T13:17:45.685Z,-0.31
2019-01-12T13:20:14.711Z,-0.39
2019-01-12T13:22:42.955Z,-0.36
2019-01-12T13:25:11.219Z,-0.45
2019-01-12T13:27:39.910Z,-0.45
2019-01-12T13:30:10.080Z,-0.48
2019-01-12T13:32:38.323Z,-0.52
2019-01-12T13:35:06.972Z,-0.57
2019-01-12T13:37:35.247Z,-0.59
2019-01-12T13:40:03.825Z,-0.74
2019-01-12T13:42:32.208Z,-0.61
2019-01-12T13:45:00.468Z,-0.69
2019-01-12T13:47:28.742Z,-0.71
2019-01-12T13:49:57.105Z,-0.72
2019-01-12T13:52:25.379Z,-0.71
2019-01-12T13:54:53.627Z,-0.70
2019-01-12T13:57:22.905Z,-0.82
2019-01-12T13:59:51.159Z,-0.77
2019-01-12T14:02:19.423Z,-0.73
2019-01-12T14:04:47.840Z,-0.79
2019-01-12T14:07:16.098Z,-0.99
2019-01-12T14:09:44.348Z,-1.22
2019-01-12T14:12:12.677Z,-1.05
2019-01-12T14:14:40.915Z,-1.07
2019-01-12T14:17:09.176Z,-1.06
2019-01-12T14:19:37.586Z,-1.06
2019-01-12T14:22:05.929Z,-1.13
2019-01-12T14:24:34.211Z,-1.21
2019-01-12T14:27:02.581Z,-1.21
2019-01-12T14:29:30.824Z,-1.38
2019-01-12T14:31:59.135Z,-1.21
2019-01-12T14:34:27.387Z,-1.45
2019-01-12T14:36:55.761Z,-1.29
2019-01-12T14:39:23.995Z,-1.22
2019-01-12T14:41:52.331Z,-1.27
2019-01-12T14:44:20.576Z,-1.34
2019-01-12T14:46:48.819Z,-1.32
2019-01-12T14:49:17.212Z,-1.47
2019-01-12T14:51:45.495Z,-1.52
2019-01-12T14:54:13.752Z,-1.53
2019-01-12T14:56:42.132Z,-1.54
2019-01-12T14:59:10.385Z,-1.76
2019-01-12T15:01:38.655Z,-1.76
2019-01-12T15:04:06.940Z,-1.74
2019-01-12T15:06:35.157Z,-1.73
2019-01-12T15:09:04.479Z,-1.68
2019-01-12T15:11:32.873Z,-1.83
2019-01-12T15:14:01.115Z,-1.90
2019-01-12T15:16:29.355Z,-1.84
2019-01-12T15:18:57.740Z,-1.75
2019-01-12T15:21:25.972Z,-1.91
2019-01-12T15:23:54.219Z,-2.09
2019-01-12T15:26:22.703Z,-1.91
2019-01-12T15:28:50.935Z,-1.97
2019-01-12T15:31:19.385Z,-2.12
2019-01-12T15:33:47.751Z,-1.91
2019-01-12T15:36:16.045Z,-1.53
2019-01-12T15:38:44.434Z,-1.39
2019-01-12T15:41:12.727Z,-1.40
2019-01-12T15:43:40.975Z,-1.22
2019-01-12T15:46:09.211Z,-1.17
2019-01-12T15:48:37.596Z,-1.19
2019-01-12T15:51:05.895Z,-1.05
2019-01-12T15:53:34.260Z,-1.09
2019-01-12T15:56:02.972Z,-1.11
2019-01-12T15:58:31.225Z,-1.03
2019-01-12T16:00:59.514Z,-0.89
2019-01-12T16:03:27.828Z,-0.75
2019-01-12T16:05:56.112Z,-0.70
2019-01-12T16:08:24.354Z,-0.77
2019-01-12T16:10:52.654Z,-1.05
2019-01-12T16:13:20.940Z,-0.89
2019-01-12T16:15:49.232Z,-0.82
2019-01-12T16:18:17.676Z,-0.79
2019-01-12T16:20:46.068Z,-0.83
2019-01-12T16:23:14.389Z,-0.83
2019-01-12T16:25:43.960Z,-0.80
2019-01-12T16:28:12.307Z,-0.79
2019-01-12T16:30:40.618Z,-0.77
2019-01-12T16:33:09.003Z,-0.89
2019-01-12T16:35:37.412Z,-1.02
2019-01-12T16:38:05.733Z,-1.14
2019-01-12T16:40:34.296Z,-1.21
2019-01-12T16:43:02.571Z,-1.38
2019-01-12T16:45:30.887Z,-1.41
2019-01-12T16:48:01.118Z,-1.55
2019-01-12T16:50:29.392Z,-1.55
2019-01-12T16:52:57.734Z,-1.48
2019-01-12T16:55:26.172Z,-1.24
2019-01-12T16:57:54.443Z,-1.48
2019-01-12T17:00:23.735Z,-1.82
2019-01-12T17:02:52.127Z,-1.60
2019-01-12T17:05:20.564Z,-1.38
2019-01-12T17:07:48.961Z,-1.14
2019-01-12T17:10:18.297Z,-1.23
2019-01-12T17:12:46.523Z,-1.38
2019-01-12T17:15:15.456Z,-1.56
2019-01-12T17:17:43.844Z,-1.63
2019-01-12T17:20:16.424Z,-1.59
2019-01-12T17:22:44.923Z,-1.73
2019-01-12T17:25:13.258Z,-1.69
2019-01-12T17:27:41.521Z,-1.92
2019-01-12T17:30:11.476Z,-1.99
2019-01-12T17:32:39.908Z,-2.03
2019-01-12T17:35:08.881Z,-1.84
2019-01-12T17:37:37.316Z,-1.76
2019-01-12T17:40:06.590Z,-1.92
2019-01-12T17:42:34.975Z,-1.77
2019-01-12T17:45:03.224Z,-1.85
2019-01-12T17:47:31.546Z,-2.22
2019-01-12T17:49:59.822Z,-2.32
2019-01-12T17:52:28.095Z,-2.22
2019-01-12T17:54:56.495Z,-2.32
2019-01-12T17:57:24.744Z,-2.43
2019-01-12T17:59:53.018Z,-2.37
2019-01-12T18:02:22.161Z,-2.29
2019-01-12T18:04:50.534Z,-2.43
2019-01-12T18:07:18.931Z,-2.30
2019-01-12T18:09:47.228Z,-2.29
2019-01-12T18:12:15.468Z,-2.21
2019-01-12T18:14:43.827Z,-2.23
2019-01-12T18:17:12.241Z,-2.39
2019-01-12T18:19:40.484Z,-2.07
2019-01-12T18:22:08.737Z,-2.14
2019-01-12T18:24:37.031Z,-2.37
2019-01-12T18:27:05.308Z,-2.47
2019-01-12T18:29:33.565Z,-2.34
2019-01-12T18:32:01.967Z,-2.58
2019-01-12T18:34:30.254Z,-2.50
2019-01-12T18:36:58.571Z,-2.39
2019-01-12T18:39:26.972Z,-2.15
2019-01-12T18:41:55.236Z,-2.35
2019-01-12T18:44:23.615Z,-2.36
2019-01-12T18:46:51.942Z,-2.08
2019-01-12T18:49:20.171Z,-2.22
2019-01-12T18:51:48.420Z,-2.28
2019-01-12T18:54:16.728Z,-2.48
2019-01-12T18:56:45.043Z,-2.58
2019-01-12T18:59:14.187Z,-2.65
2019-01-12T19:01:42.596Z,-2.57
2019-01-12T19:04:10.867Z,-2.80
2019-01-12T19:06:39.150Z,-2.77
2019-01-12T19:09:07.892Z,-2.72
2019-01-12T19:11:37.116Z,-2.61
2019-01-12T19:14:05.466Z,-2.59
2019-01-12T19:16:33.793Z,-2.56
2019-01-12T19:19:02.033Z,-2.58
2019-01-12T19:21:30.271Z,-2.97
2019-01-12T19:23:58.828Z,-2.66
2019-01-12T19:26:27.105Z,-2.57
2019-01-12T19:28:55.400Z,-2.65
2019-01-12T19:31:23.712Z,-2.60
2019-01-12T19:33:51.983Z,-2.55
2019-01-12T19:36:20.252Z,-2.81
2019-01-12T19:38:48.544Z,-2.77
2019-01-12T19:41:16.800Z,-2.84
2019-01-12T19:43:45.032Z,-2.76
2019-01-12T19:46:13.428Z,-2.79
2019-01-12T19:48:41.664Z,-2.86
2019-01-12T19:51:09.930Z,-2.94
2019-01-12T19:53:38.218Z,-2.85
2019-01-12T19:56:06.468Z,-2.85
2019-01-12T19:58:34.715Z,-2.96
2019-01-12T20:01:03.980Z,-3.03
2019-01-12T20:03:32.221Z,-2.94
2019-01-12T20:06:00.463Z,-2.98
2019-01-12T20:08:28.795Z,-3.05
2019-01-12T20:10:57.035Z,-3.09
2019-01-12T20:13:25.299Z,-3.16
2019-01-12T20:15:53.624Z,-3.26
2019-01-12T20:18:21.875Z,-3.24
2019-01-12T20:20:50.107Z,-3.16
2019-01-12T20:23:18.405Z,-3.31
2019-01-12T20:25:46.653Z,-3.60
2019-01-12T20:28:16.147Z,-3.70
2019-01-12T20:30:58.908Z,-3.53
2019-01-12T20:33:58.505Z,-3.42
2019-01-12T20:36:44.632Z,-3.42
2019-01-12T20:39:35.185Z,-3.50
2019-01-12T20:42:21.273Z,-3.62
2019-01-12T20:44:59.967Z,-3.46
2019-01-12T20:47:35.564Z,-3.47
2019-01-12T20:50:08.277Z,-3.60
2019-01-12T20:52:54.612Z,-3.55
2019-01-12T20:55:29.996Z,-3.58
2019-01-12T20:58:17.440Z,-3.60
2019-01-12T21:01:07.851Z,-3.63
2019-01-12T21:04:01.328Z,-3.76
2019-01-12T21:06:46.635Z,-3.93
2019-01-12T21:09:20.671Z,-3.95
2019-01-12T21:12:15.684Z,-3.88
2019-01-12T21:14:46.732Z,-3.97
2019-01-12T21:17:16.162Z,-4.01
2019-01-12T21:19:48.356Z,-3.90
2019-01-12T21:22:14.467Z,-3.94
2019-01-12T21:24:43.438Z,-3.90
2019-01-12T21:27:11.739Z,-3.88
2019-01-12T21:29:43.035Z,-4.03
2019-01-12T21:32:10.114Z,-4.11
2019-01-12T21:34:38.335Z,-4.02
2019-01-12T21:37:06.763Z,-3.91
2019-01-12T21:39:35.032Z,-4.05
2019-01-12T21:42:03.277Z,-4.21
2019-01-12T21:44:31.679Z,-4.15
2019-01-12T21:46:59.939Z,-4.30
2019-01-12T21:49:28.251Z,-4.29
2019-01-12T21:51:56.535Z,-4.30
2019-01-12T21:54:24.812Z,-4.25
2019-01-12T21:56:53.053Z,-4.31
2019-01-12T21:59:21.470Z,-4.48
2019-01-12T22:01:49.708Z,-4.52
2019-01-12T22:04:17.947Z,-4.50
2019-01-12T22:06:46.244Z,-4.56
2019-01-12T22:09:14.534Z,-4.61
2019-01-12T22:11:42.731Z,-4.56
2019-01-12T22:14:11.028Z,-4.58
2019-01-12T22:16:39.260Z,-4.60
2019-01-12T22:19:07.513Z,-4.63
2019-01-12T22:21:35.851Z,-4.60
2019-01-12T22:24:04.095Z,-4.61
2019-01-12T22:26:32.347Z,-4.64
2019-01-12T22:29:00.731Z,-4.83
2019-01-12T22:31:28.971Z,-4.70
2019-01-12T22:33:57.224Z,-4.65
2019-01-12T22:36:25.540Z,-4.67
2019-01-12T22:38:53.774Z,-4.77
2019-01-12T22:41:22.016Z,-4.78
2019-01-12T22:43:50.436Z,-4.85
2019-01-12T22:46:18.688Z,-4.89
2019-01-12T22:48:47.035Z,-4.92
2019-01-12T22:51:15.372Z,-4.95
2019-01-12T22:53:43.612Z,-4.85
2019-01-12T22:56:11.860Z,-4.80
2019-01-12T22:58:40.177Z,-4.86
2019-01-12T23:01:28.250Z,-4.82
2019-01-12T23:03:56.550Z,-4.89
2019-01-12T23:06:24.783Z,-4.84
2019-01-12T23:08:53.061Z,-4.88
2019-01-12T23:11:21.363Z,-4.91
2019-01-12T23:13:49.651Z,-4.83
2019-01-12T23:16:17.915Z,-4.88
2019-01-12T23:18:46.215Z,-4.83
2019-01-12T23:21:14.480Z,-4.84
2019-01-12T23:23:42.719Z,-4.90
2019-01-12T23:26:11.016Z,-4.84
2019-01-12T23:28:39.294Z,-4.85
2019-01-12T23:31:07.543Z,-4.82
2019-01-12T23:33:35.841Z,-4.85
2019-01-12T23:36:04.121Z,-4.94
2019-01-12T23:38:32.328Z,-4.87
2019-01-12T23:41:00.651Z,-4.81
2019-01-12T23:43:28.907Z,-4.71
2019-01-12T23:45:57.223Z,-4.77
2019-01-12T23:48:25.533Z,-4.81
2019-01-12T23:50:53.825Z,-4.90
2019-01-12T23:53:22.187Z,-4.82
2019-01-12T23:55:50.574Z,-4.80
2019-01-12T23:58:18.812Z,-4.81
